createdAt,value
2023-03-04T00:00:11.212Z,99176.88
2023-03-04T00:02:45.020Z,99166.94
2023-03-04T00:05:16.290Z,99164.95
2023-03-04T00:09:58.817Z,99163.88
2023-03-04T00:12:27.720Z,99162.17
2023-03-04T00:14:54.458Z,99152.11
2023-03-04T00:17:28.468Z,99151.78
2023-03-04T00:20:00.447Z,99149.42
2023-03-04T00:22:29.016Z,99147.16
2023-03-04T00:24:59.653Z,99145.70
2023-03-04T00:27:27.201Z,99148.27
2023-03-04T00:29:53.938Z,99147.34
2023-03-04T00:32:21.265Z,99145.73
2023-03-04T00:34:51.413Z,99141.35
2023-03-04T00:37:20.026Z,99140.00
2023-03-04T00:39:48.998Z,99137.98
2023-03-04T00:42:16.844Z,99137.90
2023-03-04T00:44:43.723Z,99136.55
2023-03-04T00:47:10.681Z,99134.90
2023-03-04T00:49:39.256Z,99128.73
2023-03-04T00:52:07.375Z,99125.52
2023-03-04T00:54:42.460Z,99127.33
2023-03-04T00:57:09.472Z,99126.02
2023-03-04T00:59:36.416Z,99122.68
2023-03-04T01:02:03.353Z,99117.22
2023-03-04T01:04:32.975Z,99111.66
2023-03-04T01:07:00.785Z,99114.79
2023-03-04T01:09:29.122Z,99108.83
2023-03-04T01:11:56.459Z,99099.83
2023-03-04T01:14:23.645Z,99098.25
2023-03-04T01:16:50.871Z,99094.34
2023-03-04T01:19:21.162Z,99088.87
2023-03-04T01:21:49.358Z,99085.75
2023-03-04T01:24:19.944Z,99085.73
2023-03-04T01:26:47.630Z,99083.89
2023-03-04T01:29:21.027Z,99080.32
2023-03-04T01:31:52.220Z,99080.98
2023-03-04T01:34:25.981Z,99081.94
2023-03-04T01:36:52.977Z,99084.10
2023-03-04T01:39:19.725Z,99083.09
2023-03-04T01:41:46.986Z,99076.84
2023-03-04T01:44:14.363Z,99078.33
2023-03-04T01:46:48.238Z,99075.91
2023-03-04T01:49:16.537Z,99074.80
2023-03-04T01:51:46.292Z,99067.54
2023-03-04T01:54:13.833Z,99069.05
2023-03-04T01:56:43.065Z,99069.67
2023-03-04T01:59:16.723Z,99065.12
2023-03-04T02:02:04.615Z,99059.14
2023-03-04T02:04:33.700Z,99056.20
2023-03-04T02:07:01.689Z,99057.45
2023-03-04T02:09:29.677Z,99056.88
2023-03-04T02:11:56.400Z,99054.95
2023-03-04T02:14:24.842Z,99053.04
2023-03-04T02:16:55.855Z,99053.57
2023-03-04T02:19:27.515Z,99055.90
2023-03-04T02:21:54.446Z,99057.84
2023-03-04T02:24:32.525Z,99050.61
2023-03-04T02:26:59.753Z,99043.39
2023-03-04T02:29:26.594Z,99044.33
2023-03-04T02:31:53.487Z,99047.61
2023-03-04T02:34:25.516Z,99045.30
2023-03-04T02:36:54.397Z,99047.27
2023-03-04T02:39:25.251Z,99044.36
2023-03-04T02:41:53.036Z,99028.48
2023-03-04T02:44:23.939Z,99009.85
2023-03-04T02:46:51.471Z,99004.17
2023-03-04T02:49:19.104Z,98995.35
2023-03-04T02:51:46.868Z,98996.60
2023-03-04T02:54:22.016Z,98994.83
2023-03-04T02:56:50.863Z,98997.11
2023-03-04T02:59:18.189Z,98999.63
2023-03-04T03:01:50.052Z,98998.30
2023-03-04T03:04:17.917Z,98991.23
2023-03-04T03:06:45.185Z,98989.22
2023-03-04T03:09:16.594Z,98991.64
2023-03-04T03:11:46.774Z,98989.40
2023-03-04T03:14:15.256Z,98988.94
2023-03-04T03:16:42.844Z,98982.45
2023-03-04T03:19:11.700Z,98976.66
2023-03-04T03:21:39.084Z,98974.00
2023-03-04T03:24:05.983Z,98979.92
2023-03-04T03:26:33.894Z,98974.56
2023-03-04T03:29:00.586Z,98980.95
2023-03-04T03:31:28.824Z,98971.85
2023-03-04T03:33:58.801Z,98970.61
2023-03-04T03:36:27.367Z,98968.98
2023-03-04T03:38:54.533Z,98963.45
2023-03-04T03:41:21.318Z,98960.50
2023-03-04T03:43:48.596Z,98969.45
2023-03-04T03:46:15.349Z,98966.86
2023-03-04T03:48:43.118Z,98961.60
2023-03-04T03:51:10.780Z,98962.38
2023-03-04T03:53:37.820Z,98950.67
2023-03-04T03:56:05.385Z,98955.08
2023-03-04T03:58:33.343Z,98950.01
2023-03-04T04:01:00.377Z,98941.45
2023-03-04T04:03:27.120Z,98934.27
2023-03-04T04:05:53.871Z,98932.34
2023-03-04T04:08:24.810Z,98935.80
2023-03-04T04:10:52.617Z,98929.92
2023-03-04T04:13:19.461Z,98923.20
2023-03-04T04:15:53.438Z,98917.96
2023-03-04T04:18:23.352Z,98906.77
2023-03-04T04:20:51.483Z,98908.35
2023-03-04T04:23:18.434Z,98908.50
2023-03-04T04:25:45.224Z,98903.52
2023-03-04T04:28:14.401Z,98900.83
2023-03-04T04:30:41.463Z,98899.71
2023-03-04T04:33:13.293Z,98880.34
2023-03-04T04:35:40.819Z,98874.77
2023-03-04T04:38:08.497Z,98868.88
2023-03-04T04:40:36.700Z,98856.92
2023-03-04T04:43:04.283Z,98853.66
2023-03-04T04:45:33.880Z,98854.05
2023-03-04T04:48:00.910Z,98859.58
2023-03-04T04:50:32.954Z,98848.23
2023-03-04T04:53:00.451Z,98848.02
2023-03-04T04:55:27.834Z,98851.88
2023-03-04T04:57:55.256Z,98842.30
2023-03-04T05:00:22.656Z,98848.02
2023-03-04T05:02:51.009Z,98849.13
2023-03-04T05:05:18.154Z,98840.23
2023-03-04T05:07:51.811Z,98832.52
2023-03-04T05:10:20.762Z,98827.30
2023-03-04T05:12:47.771Z,98822.69
2023-03-04T05:15:15.068Z,98821.00
2023-03-04T05:17:41.791Z,98820.79
2023-03-04T05:20:10.479Z,98810.52
2023-03-04T05:22:37.293Z,98812.02
2023-03-04T05:25:05.030Z,98810.82
2023-03-04T05:27:32.481Z,98807.73
2023-03-04T05:29:59.565Z,98801.05
2023-03-04T05:32:28.246Z,98812.90
2023-03-04T05:34:55.203Z,98802.71
2023-03-04T05:37:22.568Z,98799.45
2023-03-04T05:39:49.902Z,98802.71
2023-03-04T05:42:16.827Z,98811.58
2023-03-04T05:44:44.310Z,98800.28
2023-03-04T05:47:11.357Z,98798.36
2023-03-04T05:49:40.551Z,98806.94
2023-03-04T05:52:10.535Z,98791.83
2023-03-04T05:54:37.422Z,98798.63
2023-03-04T05:57:04.209Z,98785.73
2023-03-04T05:59:31.092Z,98777.64
2023-03-04T06:01:58.475Z,98774.98
2023-03-04T06:04:25.294Z,98782.64
2023-03-04T06:06:53.498Z,98758.55
2023-03-04T06:09:21.355Z,98773.29
2023-03-04T06:11:47.949Z,98763.77
2023-03-04T06:14:14.844Z,98761.57
2023-03-04T06:16:42.880Z,98763.23
2023-03-04T06:19:09.827Z,98762.41
2023-03-04T06:21:42.074Z,98750.99
2023-03-04T06:24:08.894Z,98755.26
2023-03-04T06:26:35.951Z,98750.91
2023-03-04T06:29:04.266Z,98756.83
2023-03-04T06:31:31.692Z,98743.52
2023-03-04T06:33:58.572Z,98746.33
2023-03-04T06:36:25.257Z,98742.98
2023-03-04T06:38:52.043Z,98744.49
2023-03-04T06:41:19.928Z,98753.17
2023-03-04T06:43:53.716Z,98741.02
2023-03-04T06:46:30.067Z,98737.85
2023-03-04T06:48:57.592Z,98748.17
2023-03-04T06:51:26.556Z,98736.64
2023-03-04T06:54:06.460Z,98735.45
2023-03-04T06:56:37.590Z,98737.58
2023-03-04T06:59:04.678Z,98732.02
2023-03-04T07:01:32.856Z,98728.29
2023-03-04T07:04:09.865Z,98725.73
2023-03-04T07:06:37.694Z,98718.05
2023-03-04T07:09:07.999Z,98716.55
2023-03-04T07:11:39.730Z,98711.23
2023-03-04T07:14:14.888Z,98708.63
2023-03-04T07:16:53.214Z,98695.86
2023-03-04T07:19:22.441Z,98715.75
2023-03-04T07:21:59.308Z,98698.46
2023-03-04T07:24:27.146Z,98692.30
2023-03-04T07:26:54.613Z,98687.36
2023-03-04T07:29:34.674Z,98686.41
2023-03-04T07:32:08.637Z,98687.73
2023-03-04T07:34:36.566Z,98688.58
2023-03-04T07:37:06.494Z,98678.90
2023-03-04T07:39:36.118Z,98677.48
2023-03-04T07:42:04.085Z,98677.03
2023-03-04T07:44:31.199Z,98670.66
2023-03-04T07:46:57.980Z,98670.18
2023-03-04T07:49:25.095Z,98661.87
2023-03-04T07:51:52.136Z,98665.28
2023-03-04T07:54:19.738Z,98657.66
2023-03-04T07:56:48.603Z,98663.55
2023-03-04T07:59:17.121Z,98662.18
2023-03-04T08:01:45.652Z,98663.33
2023-03-04T08:04:13.853Z,98659.73
2023-03-04T08:06:41.284Z,98660.93
2023-03-04T08:09:09.655Z,98658.92
2023-03-04T08:11:37.539Z,98649.88
2023-03-04T08:14:04.892Z,98651.12
2023-03-04T08:16:34.804Z,98646.27
2023-03-04T08:19:03.019Z,98651.19
2023-03-04T08:21:29.750Z,98646.98
2023-03-04T08:24:01.800Z,98639.66
2023-03-04T08:26:40.362Z,98646.96
2023-03-04T08:29:10.211Z,98651.86
2023-03-04T08:31:40.227Z,98643.45
2023-03-04T08:34:09.979Z,98656.03
2023-03-04T08:36:36.880Z,98646.80
2023-03-04T08:39:05.328Z,98642.13
2023-03-04T08:41:34.116Z,98655.14
2023-03-04T08:44:02.543Z,98644.22
2023-03-04T08:46:29.759Z,98656.06
2023-03-04T08:49:00.234Z,98648.06
2023-03-04T08:51:27.869Z,98646.11
2023-03-04T08:53:54.930Z,98643.11
2023-03-04T08:56:21.739Z,98646.98
2023-03-04T08:58:48.731Z,98645.64
2023-03-04T09:01:15.542Z,98638.85
2023-03-04T09:03:45.580Z,98635.98
2023-03-04T09:06:16.265Z,98643.75
2023-03-04T09:08:47.970Z,98636.64
2023-03-04T09:11:16.965Z,98633.42
2023-03-04T09:13:45.651Z,98627.88
2023-03-04T09:16:14.247Z,98624.83
2023-03-04T09:18:41.215Z,98624.14
2023-03-04T09:21:11.615Z,98621.45
2023-03-04T09:23:39.882Z,98625.34
2023-03-04T09:26:21.377Z,98625.19
2023-03-04T09:28:52.503Z,98622.40
2023-03-04T09:31:19.410Z,98619.30
2023-03-04T09:33:48.768Z,98622.13
2023-03-04T09:36:16.807Z,98612.52
2023-03-04T09:38:52.302Z,98614.91
2023-03-04T09:41:23.502Z,98607.29
2023-03-04T09:43:50.496Z,98602.14
2023-03-04T09:46:38.073Z,98605.39
2023-03-04T09:49:07.308Z,98607.06
2023-03-04T09:51:47.902Z,98611.69
2023-03-04T09:54:21.860Z,98610.98
2023-03-04T09:56:57.131Z,98609.29
2023-03-04T10:00:06.565Z,98597.31
2023-03-04T10:03:05.665Z,98597.23
2023-03-04T10:05:34.430Z,98595.98
2023-03-04T10:08:28.849Z,98596.44
2023-03-04T10:11:01.964Z,98599.67
2023-03-04T10:13:59.019Z,98595.30
2023-03-04T10:16:39.968Z,98599.14
2023-03-04T10:19:18.436Z,98591.55
2023-03-04T10:21:54.987Z,98594.16
2023-03-04T10:24:27.173Z,98592.55
2023-03-04T10:26:58.143Z,98590.80
2023-03-04T10:29:26.422Z,98584.61
2023-03-04T10:32:00.595Z,98581.55
2023-03-04T10:34:36.265Z,98579.17
2023-03-04T10:37:09.265Z,98578.55
2023-03-04T10:39:47.538Z,98582.65
2023-03-04T10:42:15.022Z,98571.77
2023-03-04T10:45:03.792Z,98566.27
2023-03-04T10:47:32.269Z,98558.03
2023-03-04T10:50:01.800Z,98559.24
2023-03-04T10:52:46.836Z,98541.39
2023-03-04T10:55:41.693Z,98535.94
2023-03-04T10:58:19.457Z,98535.55
2023-03-04T11:01:04.966Z,98531.66
2023-03-04T11:03:36.475Z,98522.62
2023-03-04T11:06:30.438Z,98513.52
2023-03-04T11:09:00.477Z,98504.27
2023-03-04T11:11:41.840Z,98501.22
2023-03-04T11:14:35.138Z,98523.26
2023-03-04T11:17:40.146Z,98505.55
2023-03-04T11:20:28.686Z,98501.03
2023-03-04T11:22:57.810Z,98498.09
2023-03-04T11:25:28.229Z,98494.29
2023-03-04T11:28:04.305Z,98497.60
2023-03-04T11:30:38.196Z,98495.09
2023-03-04T11:33:20.609Z,98485.64
2023-03-04T11:35:51.189Z,98486.20
2023-03-04T11:38:28.958Z,98489.22
2023-03-04T11:41:20.477Z,98482.90
2023-03-04T11:43:49.083Z,98482.10
2023-03-04T11:46:52.579Z,98493.54
2023-03-04T11:49:32.420Z,98483.25
2023-03-04T11:52:12.420Z,98477.05
2023-03-04T11:55:02.732Z,98478.76
2023-03-04T11:57:57.863Z,98472.14
2023-03-04T12:00:45.427Z,98474.95
2023-03-04T12:03:58.086Z,98467.96
2023-03-04T12:07:08.125Z,98473.27
2023-03-04T12:09:56.819Z,98474.51
2023-03-04T12:13:05.284Z,98460.35
2023-03-04T12:15:57.846Z,98462.66
2023-03-04T12:18:54.720Z,98479.50
2023-03-04T12:21:36.793Z,98460.15
2023-03-04T12:24:09.401Z,98464.89
2023-03-04T12:28:02.796Z,98472.34
2023-03-04T12:30:58.810Z,98475.78
2023-03-04T12:34:09.272Z,98469.98
2023-03-04T12:36:45.298Z,98472.38
2023-03-04T12:40:02.988Z,98472.33
2023-03-04T12:42:39.462Z,98469.71
2023-03-04T12:45:25.574Z,98468.88
2023-03-04T12:48:25.398Z,98470.14
2023-03-04T13:32:01.065Z,98464.58
2023-03-04T13:34:50.901Z,98464.65
2023-03-04T13:37:30.978Z,98462.08
2023-03-04T13:40:27.519Z,98465.17
2023-03-04T13:42:56.564Z,98456.30
2023-03-04T13:45:35.835Z,98444.73
2023-03-04T13:48:09.480Z,98441.11
2023-03-04T13:50:44.547Z,98435.81
2023-03-04T13:53:33.775Z,98435.77
2023-03-04T13:56:10.456Z,98437.19
2023-03-04T13:58:39.165Z,98427.34
2023-03-04T14:01:29.114Z,98426.99
2023-03-04T14:03:58.910Z,98421.77
2023-03-04T14:06:31.547Z,98423.61
2023-03-04T14:08:59.775Z,98424.48
2023-03-04T14:11:31.615Z,98426.42
2023-03-04T14:14:00.588Z,98429.56
2023-03-04T14:16:31.056Z,98430.58
2023-03-04T14:19:03.681Z,98434.37
2023-03-04T14:21:31.950Z,98435.33
2023-03-04T14:24:03.732Z,98436.91
2023-03-04T14:26:33.109Z,98427.69
2023-03-04T14:29:03.141Z,98434.98
2023-03-04T14:31:32.063Z,98431.83
2023-03-04T14:34:02.416Z,98432.96
2023-03-04T14:36:35.532Z,98430.20
2023-03-04T14:39:06.033Z,98433.66
2023-03-04T14:41:36.812Z,98433.13
2023-03-04T14:44:36.165Z,98432.91
2023-03-04T14:47:20.182Z,98428.70
2023-03-04T14:49:48.694Z,98429.02
2023-03-04T14:52:32.960Z,98423.79
2023-03-04T14:55:13.958Z,98424.02
2023-03-04T14:57:43.685Z,98421.09
2023-03-04T15:00:21.868Z,98425.70
2023-03-04T15:02:55.651Z,98427.27
2023-03-04T15:05:26.681Z,98419.59
2023-03-04T15:07:59.915Z,98424.50
2023-03-04T15:10:35.604Z,98416.19
2023-03-04T15:13:06.305Z,98418.37
2023-03-04T15:15:43.295Z,98416.25
2023-03-04T15:18:28.097Z,98416.48
2023-03-04T15:21:29.993Z,98416.12
2023-03-04T15:23:58.335Z,98416.39
2023-03-04T15:26:27.153Z,98418.61
2023-03-04T15:28:55.306Z,98417.09
2023-03-04T15:31:25.879Z,98419.42
2023-03-04T15:33:54.939Z,98418.46
2023-03-04T15:36:23.520Z,98416.98
2023-03-04T15:38:53.451Z,98416.48
2023-03-04T15:41:24.020Z,98410.30
2023-03-04T15:43:54.766Z,98413.92
2023-03-04T15:46:22.882Z,98418.89
2023-03-04T15:48:50.860Z,98412.27
2023-03-04T15:51:22.587Z,98416.55
2023-03-04T15:53:52.455Z,98412.66
2023-03-04T15:56:22.966Z,98415.13
2023-03-04T15:58:58.206Z,98413.36
2023-03-04T16:01:27.553Z,98415.25
2023-03-04T16:03:55.789Z,98411.73
2023-03-04T16:06:25.624Z,98412.73
2023-03-04T16:08:54.576Z,98408.89
2023-03-04T16:11:24.962Z,98407.77
2023-03-04T16:13:53.282Z,98413.27
2023-03-04T16:16:21.301Z,98410.02
2023-03-04T16:18:49.788Z,98409.85
2023-03-04T16:21:19.249Z,98416.13
2023-03-04T16:23:48.390Z,98405.41
2023-03-04T16:26:18.503Z,98405.25
2023-03-04T16:28:47.260Z,98400.72
2023-03-04T16:31:15.571Z,98400.34
2023-03-04T16:33:45.080Z,98401.67
2023-03-04T16:36:20.277Z,98397.65
2023-03-04T16:38:48.895Z,98396.57
2023-03-04T16:41:17.885Z,98401.09
2023-03-04T16:43:45.813Z,98392.15
2023-03-04T16:46:13.939Z,98394.06
2023-03-04T16:48:42.333Z,98384.77
2023-03-04T16:51:20.826Z,98387.12
2023-03-04T16:53:52.104Z,98380.58
2023-03-04T16:56:20.901Z,98379.16
2023-03-04T16:58:49.336Z,98381.78
2023-03-04T17:01:26.190Z,98377.20
2023-03-04T17:03:55.227Z,98376.53
2023-03-04T17:06:25.782Z,98375.01
2023-03-04T17:08:54.073Z,98370.66
2023-03-04T17:11:28.033Z,98369.69
2023-03-04T17:13:57.974Z,98362.79
2023-03-04T17:16:32.886Z,98363.59
2023-03-04T17:19:04.988Z,98360.36
2023-03-04T17:21:33.892Z,98360.52
2023-03-04T17:24:03.624Z,98357.42
2023-03-04T17:26:41.200Z,98358.31
2023-03-04T17:29:10.069Z,98358.83
2023-03-04T17:31:38.806Z,98349.30
2023-03-04T17:34:09.364Z,98348.48
2023-03-04T17:36:37.746Z,98351.16
2023-03-04T17:39:06.301Z,98334.69
2023-03-04T17:41:36.316Z,98346.67
2023-03-04T17:44:06.120Z,98345.86
2023-03-04T17:46:37.150Z,98346.20
2023-03-04T17:49:06.100Z,98346.20
2023-03-04T17:51:36.628Z,98349.38
2023-03-04T17:54:05.834Z,98337.36
2023-03-04T17:56:35.787Z,98336.77
2023-03-04T17:59:08.399Z,98329.66
2023-03-04T18:01:36.523Z,98327.03
2023-03-04T18:04:04.909Z,98323.12
2023-03-04T18:06:33.265Z,98320.07
2023-03-04T18:09:05.974Z,98312.92
2023-03-04T18:11:36.934Z,98316.32
2023-03-04T18:14:05.152Z,98313.83
2023-03-04T18:16:33.561Z,98322.06
2023-03-04T18:19:03.553Z,98311.25
2023-03-04T18:21:35.967Z,98319.92
2023-03-04T18:24:04.625Z,98315.05
2023-03-04T18:26:32.916Z,98312.70
2023-03-04T18:29:02.493Z,98307.64
2023-03-04T18:31:32.475Z,98307.36
2023-03-04T18:34:01.818Z,98301.17
2023-03-04T18:36:30.553Z,98303.21
2023-03-04T18:38:59.655Z,98308.13
2023-03-04T18:41:29.353Z,98294.12
2023-03-04T18:43:57.514Z,98293.68
2023-03-04T18:46:52.492Z,98300.48
2023-03-04T18:49:21.156Z,98291.70
2023-03-04T18:51:49.389Z,98297.48
2023-03-04T18:54:18.512Z,98293.80
2023-03-04T18:56:53.216Z,98298.58
2023-03-04T18:59:26.572Z,98282.67
2023-03-04T19:01:54.607Z,98278.17
2023-03-04T19:04:22.685Z,98290.86
2023-03-04T19:06:51.148Z,98282.98
2023-03-04T19:09:19.917Z,98284.98
2023-03-04T19:11:48.100Z,98281.90
2023-03-04T19:14:22.296Z,98268.64
2023-03-04T19:16:52.036Z,98266.00
2023-03-04T19:19:20.409Z,98267.06
2023-03-04T19:21:49.202Z,98251.88
2023-03-04T19:24:17.454Z,98253.48
2023-03-04T19:26:45.538Z,98255.39
2023-03-04T19:29:14.027Z,98257.58
2023-03-04T19:31:42.620Z,98249.52
2023-03-04T19:34:11.189Z,98258.27
2023-03-04T19:36:39.172Z,98257.21
2023-03-04T19:39:08.824Z,98252.44
2023-03-04T19:41:37.229Z,98248.26
2023-03-04T19:44:05.297Z,98241.50
2023-03-04T19:46:34.783Z,98245.24
2023-03-04T19:49:04.748Z,98243.42
2023-03-04T19:51:33.274Z,98245.63
2023-03-04T19:54:01.906Z,98242.19
2023-03-04T19:56:30.029Z,98243.87
2023-03-04T19:58:58.000Z,98244.59
2023-03-04T20:01:33.791Z,98235.95
2023-03-04T20:04:08.197Z,98245.20
2023-03-04T20:06:37.401Z,98235.58
2023-03-04T20:09:05.955Z,98237.45
2023-03-04T20:11:39.214Z,98230.52
2023-03-04T20:14:14.841Z,98230.16
2023-03-04T20:16:44.193Z,98230.09
2023-03-04T20:19:12.877Z,98226.29
2023-03-04T20:21:40.856Z,98232.93
2023-03-04T20:24:08.889Z,98223.60
2023-03-04T20:26:48.125Z,98224.23
2023-03-04T20:29:16.716Z,98219.86
2023-03-04T20:31:46.235Z,98219.91
2023-03-04T20:34:14.640Z,98216.72
2023-03-04T20:36:42.885Z,98228.90
2023-03-04T20:39:27.402Z,98260.11
2023-03-04T20:42:00.728Z,98307.10
2023-03-04T20:44:31.783Z,98311.64
2023-03-04T20:47:00.804Z,98318.94
2023-03-04T20:49:29.257Z,98323.70
2023-03-04T20:52:03.048Z,98325.77
2023-03-04T20:54:31.528Z,98330.14
2023-03-04T20:57:00.029Z,98338.33
2023-03-04T20:59:28.197Z,98347.86
2023-03-04T21:02:01.529Z,98349.32
2023-03-04T21:04:32.530Z,98357.17
2023-03-04T21:07:02.313Z,98358.36
2023-03-04T21:09:31.650Z,98361.55
2023-03-04T21:12:01.095Z,98368.35
2023-03-04T21:14:31.802Z,98372.81
2023-03-04T21:17:03.180Z,98368.08
2023-03-04T21:19:34.300Z,98374.52
2023-03-04T21:22:08.502Z,98371.90
2023-03-04T21:24:41.246Z,98379.93
2023-03-04T21:27:09.755Z,98381.05
2023-03-04T21:29:39.424Z,98381.86
2023-03-04T21:32:23.432Z,98385.01
2023-03-04T21:34:53.274Z,98395.66
2023-03-04T21:37:22.446Z,98394.02
2023-03-04T21:39:52.029Z,98398.83
2023-03-04T21:42:21.265Z,98402.85
2023-03-04T21:44:51.440Z,98389.96
2023-03-04T21:47:20.778Z,98389.55
2023-03-04T21:49:48.900Z,98388.79
2023-03-04T21:52:20.701Z,98386.88
2023-03-04T21:54:49.132Z,98389.19
2023-03-04T21:57:19.730Z,98385.48
2023-03-04T21:59:48.499Z,98387.20
2023-03-04T22:02:18.333Z,98383.40
2023-03-04T22:04:48.063Z,98381.70
2023-03-04T22:07:16.567Z,98379.66
2023-03-04T22:09:47.453Z,98380.90
2023-03-04T22:12:19.482Z,98382.50
2023-03-04T22:14:48.159Z,98382.89
2023-03-04T22:17:16.393Z,98387.25
2023-03-04T22:19:45.056Z,98391.48
2023-03-04T22:22:13.224Z,98397.11
2023-03-04T22:24:42.464Z,98392.77
2023-03-04T22:27:10.435Z,98390.56
2023-03-04T22:29:41.366Z,98389.73
2023-03-04T22:32:09.593Z,98390.54
2023-03-04T22:34:39.109Z,98395.52
2023-03-04T22:37:07.413Z,98399.98
2023-03-04T22:39:35.445Z,98409.52
2023-03-04T22:42:03.607Z,98413.67
2023-03-04T22:44:31.671Z,98422.66
2023-03-04T22:47:00.437Z,98428.93
2023-03-04T22:49:28.686Z,98427.70
2023-03-04T22:52:00.628Z,98431.48
2023-03-04T22:54:29.753Z,98446.98
2023-03-04T22:56:58.043Z,98454.23
2023-03-04T22:59:26.058Z,98454.73
2023-03-04T23:01:57.481Z,98456.84
2023-03-04T23:04:26.518Z,98461.61
2023-03-04T23:06:54.693Z,98467.76
2023-03-04T23:09:23.546Z,98471.49
2023-03-04T23:11:52.065Z,98474.50
2023-03-04T23:14:20.720Z,98476.46
2023-03-04T23:16:49.308Z,98483.94
2023-03-04T23:19:17.896Z,98483.46
2023-03-04T23:21:45.949Z,98480.89
2023-03-04T23:24:14.078Z,98484.69
2023-03-04T23:26:42.794Z,98488.91
2023-03-04T23:29:12.353Z,98494.70
2023-03-04T23:31:40.958Z,98484.67
2023-03-04T23:34:12.797Z,98488.04
2023-03-04T23:36:43.101Z,98494.98
2023-03-04T23:39:11.358Z,98496.85
2023-03-04T23:41:41.561Z,98496.88
2023-03-04T23:44:11.039Z,98493.52
2023-03-04T23:46:42.890Z,98491.88
2023-03-04T23:49:12.733Z,98491.57
2023-03-04T23:51:41.201Z,98491.45
2023-03-04T23:54:09.681Z,98492.45
2023-03-04T23:56:38.033Z,98497.10
2023-03-04T23:59:10.080Z,98496.50
